createdAt,value
2022-12-31T00:00:05.246Z,99750.94
2022-12-31T00:05:43.183Z,99766.97
2022-12-31T00:08:13.746Z,99798.44
2022-12-31T00:13:33.757Z,99786.03
2022-12-31T00:16:13.869Z,99751.91
2022-12-31T00:18:48.182Z,99813.56
2022-12-31T00:21:17.054Z,99812.53
2022-12-31T00:23:47.484Z,99786.16
2022-12-31T00:26:22.649Z,99746.63
2022-12-31T00:28:49.532Z,99739.81
2022-12-31T00:31:21.869Z,99802.94
2022-12-31T00:33:53.233Z,99801.81
2022-12-31T00:42:03.210Z,99725.16
2022-12-31T00:44:31.072Z,99825.03
2022-12-31T00:46:57.876Z,99734.91
2022-12-31T00:49:26.149Z,99790.34
2022-12-31T00:51:53.855Z,99780.59
2022-12-31T00:54:20.516Z,99803.50
2022-12-31T00:56:49.137Z,99698.44
2022-12-31T00:59:17.175Z,99804.28
2022-12-31T01:01:43.966Z,99829.88
2022-12-31T01:04:15.317Z,99723.53
2022-12-31T01:06:46.220Z,99760.31
2022-12-31T01:09:17.111Z,99843.50
2022-12-31T01:11:53.430Z,99829.28
2022-12-31T01:14:21.031Z,99763.50
2022-12-31T01:16:55.412Z,99841.41
2022-12-31T01:19:30.751Z,99832.69
2022-12-31T01:22:08.467Z,99831.75
2022-12-31T01:30:21.069Z,99841.63
2022-12-31T01:33:05.831Z,99824.69
2022-12-31T01:38:24.679Z,99844.91
2022-12-31T01:40:57.065Z,99648.81
2022-12-31T01:43:27.688Z,99773.06
2022-12-31T01:46:04.585Z,99841.34
2022-12-31T01:48:33.284Z,99793.06
2022-12-31T01:51:01.696Z,99839.19
2022-12-31T01:53:30.983Z,99831.59
2022-12-31T01:56:07.023Z,99837.34
2022-12-31T02:01:56.248Z,99822.91
2022-12-31T02:04:49.307Z,99817.59
2022-12-31T02:07:26.105Z,99761.81
2022-12-31T02:10:03.396Z,99812.66
2022-12-31T02:15:30.169Z,99839.03
2022-12-31T02:18:34.739Z,99795.44
2022-12-31T02:21:55.255Z,99801.66
2022-12-31T02:24:54.984Z,99745.25
2022-12-31T02:27:59.282Z,99817.88
2022-12-31T02:30:36.760Z,99818.41
2022-12-31T02:33:37.355Z,99713.81
2022-12-31T02:36:17.576Z,99715.25
2022-12-31T02:44:58.318Z,99786.88
2022-12-31T02:48:04.221Z,99815.75
2022-12-31T02:54:03.935Z,99768.94
2022-12-31T02:57:01.016Z,99764.72
2022-12-31T02:59:57.646Z,99733.19
2022-12-31T03:02:36.972Z,99822.78
2022-12-31T03:05:08.361Z,99818.84
2022-12-31T03:08:11.011Z,99850.03
2022-12-31T03:10:52.753Z,99830.03
2022-12-31T03:13:30.499Z,99842.38
2022-12-31T03:16:02.849Z,99724.66
2022-12-31T03:18:49.492Z,99710.84
2022-12-31T03:24:37.455Z,99754.59
2022-12-31T03:27:16.438Z,99852.28
2022-12-31T03:29:43.507Z,99819.47
2022-12-31T03:32:14.232Z,99852.28
2022-12-31T03:35:12.429Z,99755.44
2022-12-31T03:37:42.958Z,99860.16
2022-12-31T03:40:18.429Z,99768.81
2022-12-31T03:42:49.059Z,99827.56
2022-12-31T03:45:19.307Z,99868.44
2022-12-31T03:47:53.375Z,99793.13
2022-12-31T03:50:23.323Z,99880.59
2022-12-31T03:52:50.697Z,99742.41
2022-12-31T03:55:17.954Z,99859.09
2022-12-31T03:57:47.051Z,99695.81
2022-12-31T04:00:19.413Z,99851.97
2022-12-31T04:03:07.535Z,99802.16
2022-12-31T04:05:43.673Z,99879.63
2022-12-31T04:08:19.429Z,99861.84
2022-12-31T04:10:57.692Z,99845.97
2022-12-31T04:13:41.112Z,99785.75
2022-12-31T04:16:11.138Z,99897.97
2022-12-31T04:18:39.340Z,99781.06
2022-12-31T04:21:07.565Z,99846.41
2022-12-31T04:23:45.552Z,99802.31
2022-12-31T04:26:13.949Z,99883.13
2022-12-31T04:28:44.314Z,99775.69
2022-12-31T04:31:12.955Z,99855.88
2022-12-31T04:33:41.569Z,99888.38
2022-12-31T04:36:09.336Z,99834.56
2022-12-31T04:38:36.241Z,99861.84
2022-12-31T04:41:22.400Z,99881.50
2022-12-31T04:43:55.279Z,99896.19
2022-12-31T04:49:16.220Z,99873.59
2022-12-31T04:51:51.528Z,99824.59
2022-12-31T04:54:28.336Z,99904.06
2022-12-31T04:57:22.319Z,99898.09
2022-12-31T05:00:06.164Z,99854.06
2022-12-31T05:02:39.013Z,99867.59
2022-12-31T05:05:09.336Z,99833.09
2022-12-31T05:07:42.093Z,99924.22
2022-12-31T05:10:10.193Z,99933.81
2022-12-31T05:12:42.398Z,99921.25
2022-12-31T05:15:10.090Z,99847.81
2022-12-31T05:17:39.916Z,99932.00
2022-12-31T05:20:07.481Z,99925.28
2022-12-31T05:22:44.095Z,99930.72
2022-12-31T05:25:14.899Z,99873.59
2022-12-31T05:27:43.399Z,99911.75
2022-12-31T05:30:12.848Z,99940.41
2022-12-31T05:32:43.966Z,99921.16
2022-12-31T05:35:11.552Z,99809.53
2022-12-31T05:37:40.674Z,99926.03
2022-12-31T05:40:08.096Z,99885.25
2022-12-31T05:42:37.459Z,99919.22
2022-12-31T05:45:14.791Z,99923.81
2022-12-31T05:47:50.666Z,99926.38
2022-12-31T05:50:19.024Z,99922.66
2022-12-31T05:52:53.011Z,99884.38
2022-12-31T05:55:42.349Z,99852.66
2022-12-31T05:58:13.267Z,99936.16
2022-12-31T06:00:46.409Z,99917.84
2022-12-31T06:03:14.590Z,99933.50
2022-12-31T06:08:24.427Z,99957.69
2022-12-31T06:11:01.990Z,99930.19
2022-12-31T06:13:31.218Z,99974.63
2022-12-31T06:15:58.529Z,99964.72
2022-12-31T06:18:25.467Z,99946.69
2022-12-31T06:20:54.112Z,99974.63
2022-12-31T06:23:22.001Z,99906.00
2022-12-31T06:25:48.764Z,99978.78
2022-12-31T06:31:06.180Z,99943.06
2022-12-31T06:33:38.889Z,99995.28
2022-12-31T06:36:09.034Z,99948.81
2022-12-31T06:38:40.580Z,99903.72
2022-12-31T06:41:10.530Z,99972.78
2022-12-31T06:46:19.350Z,100006.38
2022-12-31T06:48:48.697Z,99999.63
2022-12-31T06:51:22.644Z,99943.59
2022-12-31T06:53:53.359Z,99965.22
2022-12-31T06:56:34.357Z,99926.75
2022-12-31T06:59:03.504Z,99957.03
2022-12-31T07:02:00.592Z,100024.09
2022-12-31T07:04:53.310Z,100012.25
2022-12-31T07:08:12.466Z,99933.03
2022-12-31T07:11:04.831Z,99951.25
2022-12-31T07:14:12.562Z,99995.81
2022-12-31T07:16:58.829Z,100025.69
2022-12-31T07:19:31.234Z,100015.16
2022-12-31T07:22:01.148Z,99957.56
2022-12-31T07:24:29.696Z,99925.69
2022-12-31T07:27:30.870Z,100015.34
2022-12-31T07:30:13.572Z,99970.56
2022-12-31T07:32:50.316Z,100024.19
2022-12-31T07:36:05.124Z,100035.72
2022-12-31T07:38:55.620Z,99989.94
2022-12-31T07:42:10.230Z,99934.97
2022-12-31T07:44:49.805Z,99998.97
2022-12-31T07:47:24.741Z,100056.31
2022-12-31T07:49:53.021Z,99965.66
2022-12-31T07:52:25.865Z,99959.94
2022-12-31T07:54:52.731Z,99964.41
2022-12-31T07:57:20.800Z,100064.63
2022-12-31T08:00:05.666Z,100009.91
2022-12-31T08:02:51.367Z,100077.22
2022-12-31T08:05:36.051Z,99938.38
2022-12-31T08:08:28.412Z,99998.09
2022-12-31T08:11:21.256Z,100072.50
2022-12-31T08:13:49.715Z,100049.47
2022-12-31T08:16:16.978Z,99987.38
2022-12-31T08:18:43.829Z,99928.56
2022-12-31T08:21:35.152Z,100086.16
2022-12-31T08:24:31.990Z,100107.38
2022-12-31T08:27:08.102Z,100080.16
2022-12-31T08:30:13.624Z,100124.00
2022-12-31T08:33:20.717Z,100043.00
2022-12-31T08:36:01.414Z,99892.94
2022-12-31T08:38:43.636Z,100117.94
2022-12-31T08:41:42.905Z,100109.63
2022-12-31T08:44:21.441Z,100043.41
2022-12-31T08:47:05.647Z,100118.47
2022-12-31T08:49:37.303Z,99947.97
2022-12-31T08:52:05.816Z,100069.41
2022-12-31T08:54:33.449Z,100034.09
2022-12-31T08:57:32.446Z,100107.50
2022-12-31T09:00:19.339Z,100042.75
2022-12-31T09:03:19.049Z,100116.88
2022-12-31T09:05:53.183Z,100028.38
2022-12-31T09:08:51.277Z,100116.44
2022-12-31T09:11:50.361Z,99923.66
2022-12-31T09:14:17.417Z,100034.34
2022-12-31T09:17:10.925Z,100127.31
2022-12-31T09:19:46.336Z,100096.38
2022-12-31T09:22:14.287Z,100087.13
2022-12-31T09:24:42.686Z,100139.59
2022-12-31T09:27:38.087Z,100133.94
2022-12-31T09:30:06.777Z,100133.06
2022-12-31T09:32:43.405Z,100148.88
2022-12-31T09:35:31.387Z,100159.44
2022-12-31T09:41:21.169Z,100095.13
2022-12-31T09:44:02.880Z,100118.03
2022-12-31T09:50:02.564Z,100158.88
2022-12-31T09:52:48.457Z,100087.00
2022-12-31T09:55:58.072Z,100115.06
2022-12-31T09:58:34.939Z,100152.06
2022-12-31T10:01:30.424Z,100159.53
2022-12-31T10:04:23.328Z,100080.63
2022-12-31T10:07:08.682Z,100088.16
2022-12-31T10:10:06.940Z,100085.06
2022-12-31T10:13:18.783Z,100142.44
2022-12-31T10:16:28.199Z,100162.91
2022-12-31T10:22:17.865Z,100138.16
2022-12-31T10:25:13.778Z,100165.28
2022-12-31T10:28:18.804Z,100166.53
2022-12-31T10:31:39.368Z,100157.34
2022-12-31T10:34:47.953Z,100025.56
2022-12-31T10:37:48.347Z,100121.31
2022-12-31T10:41:12.394Z,100166.00
2022-12-31T10:44:25.670Z,100097.81
2022-12-31T10:47:30.951Z,100172.25
2022-12-31T10:53:41.314Z,100172.84
2022-12-31T10:56:45.056Z,100096.53
2022-12-31T11:00:04.849Z,100159.38
2022-12-31T11:02:40.697Z,100106.09
2022-12-31T11:05:45.713Z,100178.19
2022-12-31T11:08:27.476Z,100073.28
2022-12-31T11:11:08.719Z,100127.06
2022-12-31T11:20:20.341Z,100187.38
2022-12-31T11:23:10.700Z,100201.59
2022-12-31T11:26:18.800Z,100158.63
2022-12-31T11:29:35.263Z,100192.06
2022-12-31T11:32:19.143Z,100196.09
2022-12-31T11:35:21.421Z,100201.97
2022-12-31T11:37:55.426Z,100136.19
2022-12-31T11:41:05.852Z,100171.56
2022-12-31T11:46:30.241Z,100065.66
2022-12-31T11:52:47.724Z,100181.34
2022-12-31T11:56:00.777Z,100125.44
2022-12-31T11:58:31.634Z,100115.94
2022-12-31T12:01:14.189Z,100151.38
2022-12-31T12:03:49.475Z,100178.78
2022-12-31T12:06:37.961Z,100173.94
2022-12-31T12:09:21.415Z,100169.53
2022-12-31T12:12:02.798Z,100081.09
2022-12-31T12:14:40.971Z,100058.47
2022-12-31T12:24:05.496Z,100088.25
2022-12-31T12:27:19.610Z,100145.63
2022-12-31T12:29:50.570Z,100141.25
2022-12-31T12:32:34.923Z,100149.03
2022-12-31T12:35:14.125Z,100055.78
2022-12-31T12:37:41.345Z,100105.38
2022-12-31T12:40:33.736Z,100144.81
2022-12-31T12:46:16.104Z,100046.16
2022-12-31T12:49:00.115Z,100083.88
2022-12-31T12:51:55.606Z,100145.38
2022-12-31T12:55:00.217Z,100142.19
2022-12-31T13:06:16.275Z,100146.75
2022-12-31T13:09:07.779Z,100140.78
2022-12-31T13:12:07.841Z,100145.25
2022-12-31T13:15:21.529Z,100145.47
2022-12-31T13:21:23.716Z,100141.97
2022-12-31T13:24:07.120Z,100142.31
2022-12-31T13:26:57.645Z,100135.28
2022-12-31T13:29:37.534Z,100091.78
2022-12-31T13:32:08.460Z,100062.97
2022-12-31T13:34:45.193Z,100057.78
2022-12-31T13:40:30.403Z,100060.00
2022-12-31T13:46:27.908Z,100079.81
2022-12-31T13:49:06.261Z,100103.09
2022-12-31T13:51:50.111Z,100090.81
2022-12-31T13:55:05.470Z,100115.75
2022-12-31T13:58:09.847Z,100084.09
2022-12-31T14:01:03.693Z,100045.06
2022-12-31T14:03:51.277Z,100112.97
2022-12-31T14:06:29.901Z,100061.84
2022-12-31T14:08:59.894Z,100117.91
2022-12-31T14:11:58.901Z,100134.16
2022-12-31T14:15:03.829Z,100087.25
2022-12-31T14:17:41.685Z,100083.84
2022-12-31T14:20:23.545Z,100035.50
2022-12-31T14:23:15.885Z,100066.56
2022-12-31T14:26:01.939Z,100040.63
2022-12-31T14:28:50.619Z,100159.81
2022-12-31T14:31:49.138Z,100159.25
2022-12-31T14:34:24.397Z,100043.19
2022-12-31T14:37:30.421Z,100166.03
2022-12-31T14:40:15.470Z,100127.81
2022-12-31T14:43:12.397Z,100028.88
2022-12-31T14:45:47.047Z,100162.03
2022-12-31T14:49:00.882Z,100160.44
2022-12-31T14:57:54.307Z,100070.41
2022-12-31T15:00:49.584Z,100168.66
2022-12-31T15:03:18.743Z,100175.56
2022-12-31T15:06:08.932Z,100181.78
2022-12-31T15:12:06.511Z,100109.66
2022-12-31T15:14:47.029Z,100186.09
2022-12-31T15:20:41.167Z,100114.41
2022-12-31T15:29:48.161Z,100157.78
2022-12-31T15:33:09.347Z,100186.47
2022-12-31T15:35:58.075Z,100137.31
2022-12-31T15:38:51.970Z,100105.00
2022-12-31T15:42:27.587Z,100149.81
2022-12-31T15:45:30.009Z,100185.97
2022-12-31T15:48:01.336Z,100185.69
2022-12-31T15:50:42.709Z,100097.22
2022-12-31T15:53:48.505Z,100190.06
2022-12-31T15:59:26.378Z,100092.34
2022-12-31T16:02:05.320Z,100198.09
2022-12-31T16:22:48.222Z,100195.72
2022-12-31T16:25:31.479Z,100170.13
2022-12-31T16:33:38.818Z,100199.06
2022-12-31T16:36:28.449Z,100200.94
2022-12-31T16:42:18.760Z,100020.28
2022-12-31T16:48:25.410Z,100127.97
2022-12-31T16:50:58.768Z,100212.44
2022-12-31T16:56:35.280Z,100212.34
2022-12-31T16:59:40.892Z,100150.81
2022-12-31T17:05:24.858Z,100126.47
2022-12-31T17:08:01.951Z,100213.41
2022-12-31T17:10:42.591Z,100117.06
2022-12-31T17:13:30.289Z,100213.31
2022-12-31T17:18:44.252Z,100168.72
2022-12-31T17:21:22.599Z,100208.44
2022-12-31T17:29:48.892Z,100194.34
2022-12-31T17:32:43.721Z,100198.25
2022-12-31T17:35:38.165Z,100205.66
2022-12-31T17:38:31.990Z,100211.41
2022-12-31T17:41:08.896Z,100201.59
2022-12-31T17:43:45.975Z,100211.41
2022-12-31T17:46:18.353Z,100179.38
2022-12-31T17:48:50.555Z,100143.63
2022-12-31T17:54:20.481Z,100129.75
2022-12-31T18:11:54.302Z,100234.28
2022-12-31T18:20:25.974Z,100235.38
2022-12-31T18:25:53.971Z,100222.22
2022-12-31T18:31:20.425Z,100216.38
2022-12-31T18:36:42.537Z,100253.94
2022-12-31T18:39:11.997Z,100242.69
2022-12-31T18:44:30.867Z,100258.56
2022-12-31T18:47:34.236Z,100270.75
2022-12-31T18:50:08.684Z,100245.47
2022-12-31T18:52:45.106Z,100242.53
2022-12-31T18:55:54.277Z,100269.03
2022-12-31T19:01:52.804Z,100174.28
2022-12-31T19:04:34.580Z,100272.84
2022-12-31T19:09:51.473Z,100205.97
2022-12-31T19:15:17.658Z,100159.38
2022-12-31T19:20:34.431Z,100242.66
2022-12-31T19:31:09.037Z,100237.44
2022-12-31T19:33:44.782Z,100267.47
2022-12-31T19:36:19.304Z,100235.66
2022-12-31T19:38:56.024Z,100243.38
2022-12-31T19:44:03.938Z,100280.28
2022-12-31T19:46:34.070Z,100293.50
2022-12-31T19:51:44.368Z,100208.22
2022-12-31T19:54:18.976Z,100300.47
2022-12-31T19:59:59.741Z,100240.59
2022-12-31T20:02:29.647Z,100245.06
2022-12-31T20:10:47.501Z,100232.84
2022-12-31T20:18:42.154Z,100296.31
2022-12-31T20:21:14.984Z,100191.59
2022-12-31T20:29:46.563Z,100296.41
2022-12-31T20:32:20.690Z,100282.44
2022-12-31T20:34:55.207Z,100153.47
2022-12-31T20:37:27.541Z,100253.66
2022-12-31T20:40:03.249Z,100200.53
2022-12-31T20:45:54.144Z,100205.44
2022-12-31T20:48:47.386Z,100284.06
2022-12-31T20:51:18.193Z,100190.19
2022-12-31T20:56:50.741Z,100147.72
2022-12-31T20:59:18.515Z,100306.88
2022-12-31T21:04:51.555Z,100259.91
2022-12-31T21:07:32.581Z,100322.06
2022-12-31T21:10:08.566Z,100292.03
2022-12-31T21:12:58.586Z,100271.50
2022-12-31T21:15:26.409Z,100295.53
2022-12-31T21:17:56.820Z,100285.59
2022-12-31T21:20:24.988Z,100315.44
2022-12-31T21:22:55.791Z,100283.19
2022-12-31T21:25:23.597Z,100236.81
2022-12-31T21:31:12.905Z,100290.22
2022-12-31T21:33:39.978Z,100339.09
2022-12-31T21:36:06.858Z,100242.59
2022-12-31T21:38:58.068Z,100307.22
2022-12-31T21:41:46.548Z,100317.25
2022-12-31T21:49:44.932Z,100361.97
2022-12-31T21:52:35.061Z,100354.84
2022-12-31T21:55:22.665Z,100190.47
2022-12-31T22:06:28.686Z,100234.91
2022-12-31T22:09:04.997Z,100329.13
2022-12-31T22:11:36.300Z,100327.97
2022-12-31T22:14:10.911Z,100322.84
2022-12-31T22:16:59.010Z,100338.81
2022-12-31T22:20:17.172Z,100325.03
2022-12-31T22:22:32.045Z,100357.19
2022-12-31T22:24:59.613Z,100377.72
2022-12-31T22:27:53.078Z,100312.69
2022-12-31T22:30:32.908Z,100329.09
2022-12-31T22:33:02.199Z,100274.59
2022-12-31T22:35:39.524Z,100308.44
2022-12-31T22:38:12.603Z,100317.81
2022-12-31T22:46:27.484Z,100399.94
2022-12-31T22:49:02.487Z,100394.25
2022-12-31T22:54:17.087Z,100395.56
2022-12-31T22:59:32.243Z,100378.16
2022-12-31T23:05:15.587Z,100401.28
2022-12-31T23:07:43.413Z,100399.47
2022-12-31T23:10:55.228Z,100254.81
2022-12-31T23:13:47.697Z,100417.88
2022-12-31T23:16:35.436Z,100331.19
2022-12-31T23:19:21.921Z,100409.16
2022-12-31T23:25:25.202Z,100416.44
2022-12-31T23:33:23.156Z,100334.31
2022-12-31T23:35:50.012Z,100273.63
2022-12-31T23:38:28.306Z,100418.47
2022-12-31T23:43:43.280Z,100427.63
2022-12-31T23:46:21.608Z,100380.66
2022-12-31T23:48:51.039Z,100403.72
2022-12-31T23:51:20.887Z,100315.78
2022-12-31T23:53:52.246Z,100395.81
2022-12-31T23:56:23.940Z,100426.22
2022-12-31T23:59:02.179Z,100372.69
